Time;durP1;ratioP1;P1;durP2;ratioP2;P2;SDS_P1;SDS_P2;PMS_P1;PMS_P2;Temp;Humidity;BMP_temperature;BMP_pressure;BME280_temperature;BME280_humidity;BME280_pressure;Samples;Min_cycle;Max_cycle;Signal;HPM_P1;HPM_P2
2023/05/08 05:31:39;;;;;;;13.93;10.70;;;;;;;;;;6323010;22;20046;-90
2023/05/08 05:34:05;;;;;;;13.23;10.02;;;;;;;;;;6271034;22;20004;-87
2023/05/08 05:36:31;;;;;;;13.70;10.48;;;;;;;;;;6269618;22;20006;-87
2023/05/08 05:38:58;;;;;;;14.05;10.88;;;;;;;;;;6243028;22;20003;-88
2023/05/08 05:41:24;;;;;;;13.63;10.15;;;;;;;;;;6294308;22;20011;-86
2023/05/08 05:43:50;;;;;;;19.67;10.13;;;;;;;;;;6269519;22;20030;-88
2023/05/08 05:46:19;;;;;;;14.30;10.88;;;;;;;;;;6298611;22;19992;-87
2023/05/08 05:48:45;;;;;;;12.40;10.05;;;;;;;;;;6273219;22;19984;-88
2023/05/08 05:51:11;;;;;;;13.80;10.25;;;;;;;;;;6271173;22;20204;-87
2023/05/08 05:53:37;;;;;;;15.65;11.15;;;;;;;;;;6296966;22;19992;-88
2023/05/08 05:56:03;;;;;;;13.38;10.45;;;;;;;;;;6273510;22;19988;-88
2023/05/08 05:58:29;;;;;;;17.60;11.27;;;;;;;;;;6298789;22;20008;-87
2023/05/08 06:00:56;;;;;;;13.98;9.90;;;;;;;;;;6269770;22;20014;-86
2023/05/08 06:03:22;;;;;;;14.30;10.50;;;;;;;;;;6272543;22;19983;-88
2023/05/08 06:05:48;;;;;;;13.80;10.60;;;;;;;;;;6300082;22;19995;-88
2023/05/08 06:08:16;;;;;;;13.18;9.52;;;;;;;;;;6273331;22;20015;-88
2023/05/08 06:10:42;;;;;;;11.88;9.50;;;;;;;;;;6274005;22;20012;-87
2023/05/08 06:13:08;;;;;;;13.77;9.43;;;;;;;;;;6270770;22;20018;-88
2023/05/08 06:15:34;;;;;;;12.43;9.07;;;;;;;;;;6270374;22;20081;-87
2023/05/08 06:18:00;;;;;;;10.60;8.43;;;;;;;;;;6272170;22;20059;-88
2023/05/08 06:20:26;;;;;;;11.88;8.18;;;;;;;;;;6289751;22;19992;-86
2023/05/08 06:22:52;;;;;;;10.85;8.45;;;;;;;;;;6270617;22;19992;-88
2023/05/08 06:25:18;;;;;;;11.05;7.90;;;;;;;;;;6269601;22;19992;-89
2023/05/08 06:27:45;;;;;;;11.15;7.78;;;;;;;;;;6300083;22;19991;-89
2023/05/08 06:30:11;;;;;;;10.68;7.85;;;;;;;;;;6298619;22;20022;-88
2023/05/08 06:32:37;;;;;;;16.00;8.05;;;;;;;;;;6268713;22;20044;-87
2023/05/08 06:35:03;;;;;;;12.20;7.78;;;;;;;;;;6272808;22;20281;-87
2023/05/08 06:37:30;;;;;;;9.25;7.50;;;;;;;;;;6273546;22;20003;-90
2023/05/08 06:39:56;;;;;;;13.15;7.45;;;;;;;;;;6298338;22;19988;-89
2023/05/08 06:42:22;;;;;;;11.57;8.10;;;;;;;;;;6271358;22;19996;-88
2023/05/08 06:44:49;;;;;;;10.27;7.57;;;;;;;;;;6274493;22;19995;-89
2023/05/08 06:47:15;;;;;;;10.95;7.40;;;;;;;;;;6272194;22;20804;-87
2023/05/08 06:49:41;;;;;;;10.82;7.50;;;;;;;;;;6274086;22;20385;-88
2023/05/08 06:52:07;;;;;;;11.00;7.88;;;;;;;;;;6273349;22;19996;-88
2023/05/08 06:54:33;;;;;;;10.73;7.68;;;;;;;;;;6274545;22;19991;-89
2023/05/08 06:57:00;;;;;;;9.75;7.72;;;;;;;;;;6272509;22;20003;-88
2023/05/08 06:59:26;;;;;;;9.27;7.50;;;;;;;;;;6272800;22;19996;-87
2023/05/08 07:01:52;;;;;;;11.65;8.00;;;;;;;;;;6272215;22;20290;-87
2023/05/08 07:04:18;;;;;;;11.00;8.40;;;;;;;;;;6274069;22;19996;-88
2023/05/08 07:06:47;;;;;;;11.60;8.68;;;;;;;;;;6274796;22;20007;-87
2023/05/08 07:09:16;;;;;;;13.77;9.02;;;;;;;;;;6271170;22;20224;-88
2023/05/08 07:11:42;;;;;;;17.45;9.35;;;;;;;;;;6270651;22;20000;-89
2023/05/08 07:14:11;;;;;;;15.55;9.35;;;;;;;;;;6267996;22;20008;-87
2023/05/08 07:16:37;;;;;;;15.68;9.50;;;;;;;;;;6271829;22;19991;-88
2023/05/08 07:19:03;;;;;;;13.82;8.80;;;;;;;;;;6271177;22;20022;-90
2023/05/08 07:21:29;;;;;;;14.00;9.38;;;;;;;;;;6268450;22;20432;-89
2023/05/08 07:23:55;;;;;;;16.13;9.38;;;;;;;;;;6290718;22;20226;-89
2023/05/08 07:26:22;;;;;;;11.52;8.45;;;;;;;;;;6295312;22;20006;-87
2023/05/08 07:28:49;;;;;;;12.63;8.85;;;;;;;;;;6264968;22;20155;-88
2023/05/08 07:31:15;;;;;;;13.52;8.80;;;;;;;;;;6281958;22;20030;-90
2023/05/08 07:33:41;;;;;;;16.45;9.07;;;;;;;;;;6288134;22;20479;-89
2023/05/08 07:36:07;;;;;;;19.95;9.70;;;;;;;;;;6294034;22;19991;-89
2023/05/08 07:38:36;;;;;;;18.52;9.35;;;;;;;;;;6298524;22;19979;-89
2023/05/08 07:41:04;;;;;;;19.42;9.57;;;;;;;;;;6299153;22;20004;-88
2023/05/08 07:43:30;;;;;;;26.90;10.63;;;;;;;;;;6296555;22;20209;-88
2023/05/08 07:45:56;;;;;;;18.63;9.07;;;;;;;;;;6299468;22;20053;-86
2023/05/08 07:48:22;;;;;;;13.55;9.15;;;;;;;;;;6302968;22;19988;-89
2023/05/08 07:50:51;;;;;;;13.65;8.38;;;;;;;;;;6301282;22;20013;-86
2023/05/08 07:53:17;;;;;;;12.93;8.32;;;;;;;;;;6299850;22;20008;-87
2023/05/08 07:55:43;;;;;;;14.23;9.27;;;;;;;;;;6299101;22;19996;-88
2023/05/08 07:58:09;;;;;;;16.65;7.60;;;;;;;;;;6298315;22;20835;-89
2023/05/08 08:00:35;;;;;;;15.70;8.68;;;;;;;;;;6300915;22;19996;-88
2023/05/08 08:03:01;;;;;;;19.08;8.75;;;;;;;;;;6299992;22;20038;-88
2023/05/08 08:05:27;;;;;;;12.57;8.00;;;;;;;;;;6301186;22;19995;-88
2023/05/08 08:07:54;;;;;;;10.30;7.72;;;;;;;;;;6302803;22;20000;-87
2023/05/08 08:10:20;;;;;;;13.27;9.23;;;;;;;;;;6301527;22;19996;-87
2023/05/08 08:12:46;;;;;;;12.38;7.82;;;;;;;;;;6299372;22;20057;-87
2023/05/08 08:15:12;;;;;;;14.40;8.57;;;;;;;;;;6302430;22;20008;-87
2023/05/08 08:17:37;;;;;;;11.40;6.30;;;;;;;;;;6299887;22;19987;-87
2023/05/08 08:20:04;;;;;;;9.18;6.20;;;;;;;;;;6301038;22;20015;-88
2023/05/08 08:22:30;;;;;;;8.35;6.30;;;;;;;;;;6297996;22;20000;-87
2023/05/08 08:24:56;;;;;;;11.25;6.72;;;;;;;;;;6297639;22;20033;-89
2023/05/08 08:27:22;;;;;;;11.27;7.53;;;;;;;;;;6299720;22;20045;-89
2023/05/08 08:29:48;;;;;;;11.55;7.15;;;;;;;;;;6295730;22;20003;-88
2023/05/08 08:32:14;;;;;;;11.55;7.40;;;;;;;;;;6268972;22;19988;-89
2023/05/08 08:34:40;;;;;;;11.95;6.78;;;;;;;;;;6270844;22;20038;-87
2023/05/08 08:37:09;;;;;;;10.85;7.65;;;;;;;;;;6297126;22;20007;-89
2023/05/08 08:39:36;;;;;;;12.52;7.85;;;;;;;;;;6270603;22;19999;-86
2023/05/08 08:42:02;;;;;;;13.35;8.00;;;;;;;;;;6266480;22;20007;-90
2023/05/08 08:44:28;;;;;;;13.52;7.15;;;;;;;;;;6298752;22;20079;-90
2023/05/08 08:47:01;;;;;;;11.07;7.60;;;;;;;;;;6270296;22;20000;-89
2023/05/08 08:49:33;;;;;;;10.48;7.47;;;;;;;;;;6295382;22;20004;-88
2023/05/08 08:52:06;;;;;;;12.18;7.90;;;;;;;;;;6296491;22;20027;-86
2023/05/08 08:54:34;;;;;;;12.85;7.93;;;;;;;;;;6268007;22;20003;-87
2023/05/08 08:57:01;;;;;;;16.02;7.88;;;;;;;;;;6273092;22;20358;-87
2023/05/08 08:59:28;;;;;;;14.40;8.48;;;17.40;99.90;;;;;;6274655;22;19992;-88
2023/05/08 09:01:56;;;;;;;12.38;7.85;;;;;;;;;;6274624;22;20004;-88
2023/05/08 09:04:26;;;;;;;11.57;7.80;;;;;;;;;;6275295;22;20077;-87
2023/05/08 09:06:53;;;;;;;12.45;7.32;;;;;;;;;;6276473;22;19987;-88
2023/05/08 09:09:21;;;;;;;11.85;7.72;;;;;;;;;;6275907;22;19987;-90
2023/05/08 09:11:47;;;;;;;10.35;7.68;;;;;;;;;;6300779;22;19991;-86
2023/05/08 09:14:14;;;;;;;12.13;7.80;;;;;;;;;;6274667;22;19988;-87
2023/05/08 09:16:40;;;;;;;12.50;7.50;;;;;;;;;;6275657;22;19992;-88
2023/05/08 09:19:06;;;;;;;11.68;6.88;;;;;;;;;;6275178;22;20018;-89
2023/05/08 09:21:32;;;;;;;10.75;7.90;;;;;;;;;;6276263;22;20026;-90
2023/05/08 09:23:59;;;;;;;10.70;7.53;;;;;;;;;;6273831;22;20043;-89
2023/05/08 09:26:26;;;;;;;10.00;6.93;;;;;;;;;;6274925;22;20024;-89
2023/05/08 09:29:07;;;;;;;10.30;7.47;;;;;;;;;;6269477;22;19995;-86
2023/05/08 09:31:40;;;;;;;10.27;7.45;;;18.60;99.90;;;;;;6288764;22;20015;-87
2023/05/08 09:34:21;;;;;;;10.75;7.85;;;18.60;99.90;;;;;;6297150;22;20003;-87
2023/05/08 09:36:47;;;;;;;10.63;7.53;;;;;;;;;;6293954;22;20004;-88
2023/05/08 09:39:24;;;;;;;11.90;6.90;;;18.90;99.90;;;;;;6286402;22;20058;-87
2023/05/08 09:42:04;;;;;;;11.65;6.68;;;19.10;99.90;;;;;;6284138;22;20282;-89
2023/05/08 09:44:51;;;;;;;12.50;6.40;;;19.30;99.90;;;;;;6283430;22;20012;-89
2023/05/08 09:47:19;;;;;;;9.77;6.38;;;;;;;;;;6289241;22;20000;-88
2023/05/08 09:50:09;;;;;;;10.02;6.88;;;19.50;99.90;;;;;;6288462;22;20006;-91
2023/05/08 09:52:36;;;;;;;10.68;6.70;;;19.70;99.90;;;;;;6294573;22;20033;-88
2023/05/08 09:55:09;;;;;;;9.85;6.55;;;20.10;99.90;;;;;;6298888;22;19987;-88
2023/05/08 09:57:50;;;;;;;10.02;6.75;;;20.30;99.90;;;;;;6294089;22;20004;-90
2023/05/08 10:00:15;;;;;;;;;;;20.50;99.90;;;;;;6280154;22;20003;-89
2023/05/08 10:02:42;;;;;;;8.20;5.70;;;;;;;;;;6285510;22;19942;-88
2023/05/08 10:05:25;;;;;;;13.73;6.85;;;;;;;;;;6286423;22;20007;-89
2023/05/08 10:07:51;;;;;;;9.07;6.35;;;;;;;;;;6285199;22;20010;-89
2023/05/08 10:10:25;;;;;;;8.85;6.28;;;21.20;99.90;;;;;;6287930;22;19999;-88
2023/05/08 10:12:51;;;;;;;12.55;6.47;;;;;;;;;;6291530;22;20055;-88
2023/05/08 10:15:17;;;;;;;14.05;6.28;;;;;;;;;;6291349;22;20468;-88
2023/05/08 10:17:53;;;;;;;11.63;6.70;;;;;;;;;;6288297;22;20094;-89
2023/05/08 10:20:20;;;;;;;12.18;7.00;;;;;;;;;;6287265;22;20189;-87
2023/05/08 10:22:48;;;;;;;9.90;5.85;;;;;;;;;;6287735;22;20011;-88
2023/05/08 10:25:16;;;;;;;12.38;6.82;;;;;;;;;;6286882;22;20000;-88
2023/05/08 10:27:51;;;;;;;11.07;5.88;;;;;;;;;;6287305;22;20015;-87
2023/05/08 10:30:22;;;;;;;11.18;6.18;;;22.10;99.90;;;;;;6286620;22;20012;-88
2023/05/08 10:32:53;;;;;;;9.75;5.80;;;22.30;99.90;;;;;;6285372;22;20381;-86
2023/05/08 10:35:20;;;;;;;7.93;5.38;;;;;;;;;;6260402;22;20030;-87
2023/05/08 10:37:47;;;;;;;9.82;5.88;;;;;;;;;;6287441;22;20035;-87
2023/05/08 10:40:14;;;;;;;10.80;5.63;;;;;;;;;;6289247;22;19999;-87
2023/05/08 10:42:45;;;;;;;9.70;5.20;;;;;;;;;;6287689;22;20010;-87
2023/05/08 10:45:11;;;;;;;8.50;5.47;;;;;;;;;;6286534;22;20007;-88
2023/05/08 10:47:40;;;;;;;6.88;5.10;;;;;;;;;;6286991;22;20006;-87
2023/05/08 10:50:24;;;;;;;9.07;5.47;;;;;;;;;;6288868;22;19999;-87
2023/05/08 10:52:53;;;;;;;11.63;6.25;;;;;;;;;;6288930;22;20218;-90
2023/05/08 10:55:19;;;;;;;10.63;6.05;;;;;;;;;;6285517;22;20090;-87
2023/05/08 10:58:05;;;;;;;8.55;6.03;;;20.10;99.90;;;;;;6286666;22;20160;-87
2023/05/08 11:00:58;;;;;;;9.27;5.78;;;19.90;99.90;;;;;;6286819;22;20004;-88
2023/05/08 11:03:31;;;;;;;11.55;6.03;;;;;;;;;;6284374;22;20011;-86
2023/05/08 11:06:01;;;;;;;9.18;6.50;;;;;;;;;;6284223;22;20061;-87
2023/05/08 11:08:28;;;;;;;8.93;5.00;;;;;;;;;;6288688;22;20614;-88
2023/05/08 11:11:00;;;;;;;9.23;5.32;;;;;;;;;;6284324;22;20007;-88
2023/05/08 11:13:39;;;;;;;9.38;5.22;;;19.20;99.90;;;;;;6278032;22;20014;-85
2023/05/08 11:16:06;;;;;;;9.35;5.15;;;;;;;;;;6283979;22;20015;-87
2023/05/08 11:18:33;;;;;;;9.43;5.55;;;;;;;;;;6280549;22;20415;-86
2023/05/08 11:21:02;;;;;;;13.57;6.70;;;;;;;;;;6280245;22;20011;-89
2023/05/08 11:23:32;;;;;;;9.05;5.97;;;;;;;;;;6279850;22;20063;-86
2023/05/08 11:26:10;;;;;;;11.32;6.25;;;;;;;;;;6285515;22;20004;-86
2023/05/08 11:28:37;;;;;;;9.35;5.32;;;;;;;;;;6286869;22;20084;-87
2023/05/08 11:31:04;;;;;;;7.03;4.93;;;;;;;;;;6282309;22;20015;-87
2023/05/08 11:33:37;;;;;;;12.15;6.13;;;;;;;;;;6285380;22;20012;-88
2023/05/08 11:36:15;;;;;;;11.27;6.15;;;;;;;;;;6286393;22;20067;-88
2023/05/08 11:38:42;;;;;;;11.02;6.47;;;;;;;;;;6283929;22;20008;-87
2023/05/08 11:41:08;;;;;;;8.43;5.78;;;;;;;;;;6286664;22;20003;-88
2023/05/08 11:43:43;;;;;;;9.77;5.97;;;;;;;;;;6283342;22;20019;-87
2023/05/08 11:46:20;;;;;;;7.60;5.97;;;18.50;99.90;;;;;;6286049;22;19999;-87
2023/05/08 11:48:46;;;;;;;8.32;5.72;;;;;;;;;;6285021;22;20006;-88
2023/05/08 11:51:14;;;;;;;8.32;6.00;;;;;;;;;;6284951;22;20023;-85
2023/05/08 11:53:41;;;;;;;6.88;5.47;;;;;;;;;;6282265;22;20042;-87
2023/05/08 11:56:08;;;;;;;8.82;6.55;;;;;;;;;;6285539;22;20007;-87
2023/05/08 11:58:35;;;;;;;7.28;5.93;;;;;;;;;;6285384;22;20507;-88
2023/05/08 12:01:06;;;;;;;9.57;6.00;;;;;;;;;;6284205;22;20007;-87
2023/05/08 12:03:35;;;;;;;11.15;7.30;;;;;;;;;;6286094;22;20023;-85
2023/05/08 12:06:01;;;;;;;9.13;6.22;;;;;;;;;;6284854;22;19999;-87
2023/05/08 12:08:27;;;;;;;10.75;6.88;;;;;;;;;;6283462;22;20014;-89
2023/05/08 12:10:57;;;;;;;10.27;6.85;;;;;;;;;;6285511;22;20444;-87
2023/05/08 12:13:27;;;;;;;10.15;6.63;;;;;;;;;;6283154;22;20375;-88
2023/05/08 12:15:54;;;;;;;;;;;18.30;99.90;;;;;;6284824;22;20004;-87
2023/05/08 12:18:21;;;;;;;10.93;8.07;;;;;;;;;;6284093;22;19903;-86
2023/05/08 12:20:51;;;;;;;11.57;8.68;;;;;;;;;;6282178;22;20003;-87
2023/05/08 12:23:17;;;;;;;12.13;8.02;;;;;;;;;;6282974;22;20003;-88
2023/05/08 12:25:43;;;;;;;11.95;7.47;;;;;;;;;;6288039;22;20027;-89
2023/05/08 12:28:09;;;;;;;10.20;7.47;;;;;;;;;;6286307;22;19999;-90
2023/05/08 12:30:36;;;;;;;10.10;7.40;;;;;;;;;;6285669;22;20038;-85
2023/05/08 12:33:03;;;;;;;11.40;8.35;;;;;;;;;;6280886;22;20008;-84
2023/05/08 12:35:29;;;;;;;11.65;8.13;;;;;;;;;;6287557;22;20055;-87
2023/05/08 12:38:01;;;;;;;13.65;9.15;;;;;;;;;;6283901;22;20063;-88
2023/05/08 12:40:28;;;;;;;12.75;8.82;;;;;;;;;;6286872;22;20012;-88
2023/05/08 12:42:54;;;;;;;12.40;7.68;;;;;;;;;;6285767;22;20090;-89
2023/05/08 12:45:21;;;;;;;12.10;7.35;;;;;;;;;;6286218;22;20004;-88
2023/05/08 12:47:50;;;;;;;10.30;6.88;;;;;;;;;;6290027;22;20029;-87
2023/05/08 12:50:19;;;;;;;8.32;6.22;;;19.00;99.90;;;;;;6284925;22;19991;-87
2023/05/08 12:52:49;;;;;;;8.97;6.13;;;;;;;;;;6285895;22;20004;-87
2023/05/08 12:55:22;;;;;;;10.23;6.30;;;;;;;;;;6296207;22;19999;-87
2023/05/08 12:57:48;;;;;;;7.30;5.35;;;;;;;;;;6300796;22;20008;-88
2023/05/08 13:00:15;;;;;;;8.77;5.57;;;;;;;;;;6284203;22;19999;-87
2023/05/08 13:02:52;;;;;;;9.82;5.95;;;19.10;99.90;;;;;;6278762;22;20168;-85
2023/05/08 13:05:19;;;;;;;6.68;5.07;;;;;;;;;;6284319;22;20008;-87
2023/05/08 13:07:45;;;;;;;7.20;5.05;;;;;;;;;;6282398;22;20023;-87
2023/05/08 13:10:11;;;;;;;7.25;4.97;;;;;;;;;;6282466;22;20089;-85
2023/05/08 13:12:37;;;;;;;6.78;4.30;;;;;;;;;;6281051;22;20003;-87
2023/05/08 13:15:03;;;;;;;6.35;4.20;;;;;;;;;;6282135;22;20000;-88
2023/05/08 13:17:29;;;;;;;6.70;4.00;;;;;;;;;;6285244;22;20000;-88
2023/05/08 13:19:55;;;;;;;5.80;4.40;;;;;;;;;;6279038;22;20004;-87
2023/05/08 13:22:21;;;;;;;5.70;3.50;;;;;;;;;;6282854;22;20018;-86
2023/05/08 13:24:48;;;;;;;5.53;3.65;;;;;;;;;;6284485;22;20004;-87
2023/05/08 13:27:14;;;;;;;4.90;2.95;;;;;;;;;;6288493;22;20011;-88
2023/05/08 13:29:40;;;;;;;5.60;3.20;;;;;;;;;;6288308;22;20023;-85
2023/05/08 13:32:06;;;;;;;4.90;2.78;;;;;;;;;;6261837;22;20020;-86
2023/05/08 13:34:32;;;;;;;3.97;2.47;;;;;;;;;;6259964;22;20488;-86
2023/05/08 13:37:00;;;;;;;4.00;2.83;;;;;;;;;;6260319;22;20012;-87
2023/05/08 13:39:26;;;;;;;4.10;2.60;;;;;;;;;;6260939;22;20088;-88
2023/05/08 13:41:52;;;;;;;5.82;2.95;;;;;;;;;;6259610;22;20454;-88
2023/05/08 13:44:18;;;;;;;6.07;3.78;;;;;;;;;;6285024;22;20344;-90
2023/05/08 13:46:44;;;;;;;4.10;3.17;;;;;;;;;;6258453;22;20010;-89
2023/05/08 13:49:10;;;;;;;4.70;3.17;;;;;;;;;;6262672;22;20496;-89
2023/05/08 13:51:36;;;;;;;4.63;3.13;;;;;;;;;;6286997;22;20011;-89
2023/05/08 13:54:03;;;;;;;5.25;2.92;;;;;;;;;;6257602;22;20007;-87
2023/05/08 13:56:29;;;;;;;4.63;2.80;;;;;;;;;;6255617;22;20019;-87
2023/05/08 13:58:55;;;;;;;3.97;2.80;;;;;;;;;;6255621;22;20007;-86
2023/05/08 14:01:21;;;;;;;3.47;2.42;;;;;;;;;;6259943;22;20022;-88
2023/05/08 14:03:47;;;;;;;5.35;3.05;;;;;;;;;;6256960;22;20328;-87
2023/05/08 14:06:13;;;;;;;17.58;11.80;;;;;;;;;;6253987;22;20035;-86
2023/05/08 14:08:39;;;;;;;5.30;3.22;;;;;;;;;;6257964;22;20004;-89
2023/05/08 14:11:05;;;;;;;5.00;3.78;;;;;;;;;;6287403;22;19999;-88
2023/05/08 14:13:33;;;;;;;5.05;3.20;;;;;;;;;;6288228;22;20085;-88
2023/05/08 14:15:59;;;;;;;6.32;3.30;;;;;;;;;;6261035;22;20000;-88
2023/05/08 14:18:25;;;;;;;4.88;3.60;;;;;;;;;;6258117;22;20094;-88
2023/05/08 14:20:51;;;;;;;6.45;4.13;;;;;;;;;;6255869;22;20022;-87
2023/05/08 14:23:17;;;;;;;7.97;4.57;;;;;;;;;;6283773;22;19991;-89
2023/05/08 14:25:43;;;;;;;5.72;4.10;;;;;;;;;;6256940;22;20579;-87
2023/05/08 19:10:44;;;;;;;;;;;;;;;;;;;;;
2023/05/08 19:13:40;;;;;;;10.75;7.95;;;;;;;;;;6303189;22;20018;-86
2023/05/08 19:16:55;;;;;;;12.27;8.60;;;16.90;99.90;;;;;;6302561;22;20057;-84
2023/05/08 19:19:24;;;;;;;13.25;8.50;;;;;;;;;;6274084;22;19987;-83
2023/05/08 19:22:39;;;;;;;12.23;8.52;;;;;;;;;;6301621;22;20031;-84
2023/05/08 19:27:21;;;;;;;11.93;9.02;;;;;;;;;;6316957;22;20046;-80
2023/05/08 19:29:47;;;;;;;16.75;9.48;;;;;;;;;;6303134;22;20014;-82
2023/05/08 19:32:14;;;;;;;12.27;9.30;;;;;;;;;;6276331;22;20038;-81
2023/05/08 19:34:41;;;;;;;13.02;9.38;;;;;;;;;;6301957;22;19992;-81
2023/05/08 19:37:11;;;;;;;15.75;9.48;;;;;;;;;;6276724;22;20043;-81
2023/05/08 19:39:41;;;;;;;13.88;9.52;;;;;;;;;;6302650;22;19996;-81
2023/05/08 19:42:10;;;;;;;14.43;9.90;;;;;;;;;;6303358;22;20068;-81
2023/05/08 19:44:52;;;;;;;12.73;8.35;;;;;;;;;;6303447;22;19984;-81
2023/05/08 19:47:19;;;;;;;10.57;8.07;;;;;;;;;;6303450;22;19996;-80
2023/05/08 19:49:46;;;;;;;12.80;8.75;;;;;;;;;;6276126;22;19992;-82
2023/05/08 19:52:13;;;;;;;11.65;8.88;;;;;;;;;;6303351;22;20006;-82
2023/05/08 19:54:41;;;;;;;16.30;11.18;;;;;;;;;;6303028;22;19995;-80
2023/05/08 19:57:10;;;;;;;14.55;9.77;;;;;;;;;;6276031;22;20003;-81
2023/05/08 19:59:39;;;;;;;14.15;9.65;;;;;;;;;;6276392;22;20049;-82
2023/05/08 20:02:12;;;;;;;15.13;8.83;;;;;;;;;;6301550;22;20031;-83
2023/05/08 20:04:43;;;;;;;14.75;9.57;;;;;;;;;;6303179;22;20521;-83
2023/05/08 20:07:14;;;;;;;13.70;9.48;;;;;;;;;;6276746;22;20022;-82
2023/05/08 20:09:42;;;;;;;12.70;9.55;;;;;;;;;;6303156;22;19992;-83
2023/05/08 20:23:10;;;;;;;14.82;9.57;;;;;;;;;;6317046;22;20007;-84
2023/05/08 20:25:40;;;;;;;14.98;10.85;;;;;;;;;;6306460;22;19987;-83
2023/05/08 20:38:46;;;;;;;14.00;8.80;;;;;;;;;;6324070;22;20018;-82
2023/05/08 20:41:13;;;;;;;13.57;9.15;;;;;;;;;;6333109;22;20018;-83
2023/05/08 20:43:40;;;;;;;11.38;8.48;;;;;;;;;;6306853;22;19991;-83
2023/05/08 20:46:08;;;;;;;13.75;7.95;;;;;;;;;;6333530;22;19987;-83
2023/05/08 20:48:36;;;;;;;10.93;7.57;;;;;;;;;;6304467;22;19984;-83
2023/05/08 20:51:03;;;;;;;9.77;6.95;;;;;;;;;;6304268;22;19992;-83
2023/05/08 20:53:32;;;;;;;9.77;6.38;;;;;;;;;;6304092;22;19984;-82
2023/05/08 20:56:02;;;;;;;11.07;7.30;;;;;;;;;;6304336;22;19984;-84
2023/05/08 21:01:18;;;;;;;12.38;6.90;;;;;;;;;;6274841;22;20004;-85
2023/05/08 21:04:00;;;;;;;11.80;7.70;;;;;;;;;;6320948;22;20007;-82
2023/05/08 21:06:27;;;;;;;12.68;7.47;;;;;;;;;;6303798;22;19994;-84
2023/05/08 21:08:54;;;;;;;10.32;7.18;;;;;;;;;;6305389;22;19987;-81
2023/05/08 21:11:21;;;;;;;10.38;6.88;;;;;;;;;;6304754;22;19996;-80
2023/05/08 21:13:49;;;;;;;12.60;7.20;;;;;;;;;;6304403;22;19992;-80
2023/05/08 21:16:15;;;;;;;12.65;8.75;;;;;;;;;;6304142;22;19992;-81
2023/05/08 21:18:47;;;;;;;16.20;8.73;;;;;;;;;;6276304;22;20003;-81
2023/05/08 21:21:15;;;;;;;14.68;8.38;;;;;;;;;;6302229;22;20008;-82
2023/05/08 21:23:41;;;;;;;12.13;8.45;;;;;;;;;;6304383;22;20018;-82
2023/05/08 21:26:11;;;;;;;13.20;8.70;;;;;;;;;;6303673;22;19999;-82
2023/05/08 21:28:37;;;;;;;10.20;7.60;;;;;;;;;;6277316;22;20112;-79
2023/05/08 21:31:04;;;;;;;10.48;8.13;;;;;;;;;;6276627;22;20230;-78
2023/05/08 21:33:32;;;;;;;12.02;8.88;;;;;;;;;;6276702;22;20725;-82
2023/05/08 21:35:58;;;;;;;11.77;8.05;;;;;;;;;;6303708;22;20003;-84
2023/05/08 21:38:25;;;;;;;10.85;7.43;;;;;;;;;;6303977;22;20010;-80
2023/05/08 21:40:52;;;;;;;12.50;7.93;;;;;;;;;;6303004;22;20011;-80
2023/05/08 21:43:18;;;;;;;10.68;7.93;;;;;;;;;;6302028;22;19992;-79
2023/05/08 21:45:47;;;;;;;11.18;7.22;;;;;;;;;;6303768;22;19988;-80
2023/05/08 21:48:14;;;;;;;12.05;7.13;;;;;;;;;;6302974;22;19991;-79
2023/05/08 21:50:40;;;;;;;10.27;7.45;;;;;;;;;;6275161;22;19995;-81
2023/05/08 21:53:06;;;;;;;11.23;7.65;;;;;;;;;;6303072;22;20010;-80
2023/05/08 21:55:33;;;;;;;9.43;7.10;;;;;;;;;;6276252;22;20026;-83
2023/05/08 21:58:00;;;;;;;12.43;8.15;;;;;;;;;;6274476;22;20003;-81
2023/05/08 22:00:27;;;;;;;10.63;7.88;;;;;;;;;;6302734;22;20040;-81
2023/05/08 22:02:53;;;;;;;11.75;7.72;;;;;;;;;;6302590;22;20015;-81
2023/05/08 22:05:20;;;;;;;10.60;8.48;;;;;;;;;;6302319;22;19992;-81
2023/05/08 22:07:46;;;;;;;11.10;8.55;;;;;;;;;;6303771;22;20010;-80
2023/05/08 22:10:13;;;;;;;14.00;8.60;;;;;;;;;;6277138;22;20014;-80
2023/05/08 22:12:39;;;;;;;12.65;8.43;;;;;;;;;;6301694;22;19992;-81
2023/05/08 22:15:06;;;;;;;11.73;8.40;;;;;;;;;;6302993;22;19998;-82
2023/05/08 22:17:32;;;;;;;15.30;8.23;;;;;;;;;;6276848;22;20000;-80
2023/05/08 22:19:58;;;;;;;13.82;8.15;;;;;;;;;;6302387;22;19988;-81
2023/05/08 22:22:25;;;;;;;12.48;8.75;;;;;;;;;;6275310;22;20103;-81
2023/05/08 22:24:51;;;;;;;10.95;8.77;;;;;;;;;;6303419;22;19984;-80
2023/05/08 22:27:21;;;;;;;12.90;8.02;;;;;;;;;;6301221;22;20019;-81
2023/05/08 22:29:50;;;;;;;11.77;8.48;;;;;;;;;;6276649;22;20044;-81
2023/05/08 22:32:17;;;;;;;10.90;8.23;;;;;;;;;;6275641;22;19991;-80
2023/05/08 22:34:45;;;;;;;9.85;7.95;;;;;;;;;;6301483;22;20059;-81
2023/05/08 22:37:11;;;;;;;10.15;8.23;;;;;;;;;;6276258;22;20043;-79
2023/05/08 22:39:37;;;;;;;12.85;8.70;;;;;;;;;;6303214;22;20002;-81
2023/05/08 22:42:04;;;;;;;10.93;8.60;;;;;;;;;;6276056;22;20008;-80
2023/05/08 22:44:30;;;;;;;11.77;8.82;;;;;;;;;;6276263;22;20011;-81
2023/05/08 22:46:57;;;;;;;21.08;9.35;;;;;;;;;;6277019;22;20010;-81
2023/05/08 22:49:23;;;;;;;14.13;9.30;;;;;;;;;;6274826;22;19992;-81
2023/05/08 22:51:50;;;;;;;10.65;8.00;;;;;;;;;;6302395;22;19996;-80
2023/05/08 22:54:19;;;;;;;9.75;7.97;;;;;;;;;;6302858;22;19984;-82
2023/05/08 22:56:51;;;;;;;13.25;8.35;;;;;;;;;;6299100;22;20014;-81
2023/05/08 22:59:23;;;;;;;10.32;8.18;;;;;;;;;;6302194;22;20235;-81
2023/05/08 23:01:50;;;;;;;11.93;8.15;;;;;;;;;;6302507;22;20003;-80
2023/05/08 23:04:16;;;;;;;11.02;8.27;;;;;;;;;;6300200;22;20015;-81
2023/05/08 23:06:46;;;;;;;13.57;8.95;;;;;;;;;;6302344;22;20030;-80
2023/05/08 23:11:51;;;;;;;13.00;9.23;;;;;;;;;;6274836;22;20007;-82
2023/05/08 23:14:17;;;;;;;10.25;7.57;;;;;;;;;;6306336;22;20000;-81
2023/05/08 23:16:44;;;;;;;12.35;7.95;;;;;;;;;;6298005;22;19991;-83
2023/05/08 23:19:14;;;;;;;10.98;8.98;;;;;;;;;;6301882;22;19995;-81
2023/05/08 23:21:44;;;;;;;9.70;8.30;;;;;;;;;;6301561;22;20020;-81
2023/05/08 23:24:16;;;;;;;13.80;8.52;;;;;;;;;;6273337;22;19994;-81
2023/05/08 23:26:52;;;;;;;13.65;9.25;;;;;;;;;;6274394;22;20067;-81
2023/05/08 23:29:41;;;;;;;12.93;8.75;;;;;;;;;;6301250;22;20006;-81
2023/05/08 23:32:13;;;;;;;12.38;9.30;;;;;;;;;;6304718;22;20014;-83
2023/05/08 23:34:44;;;;;;;12.73;9.10;;;;;;;;;;6325406;22;20022;-83
2023/05/08 23:37:13;;;;;;;12.38;9.82;;;;;;;;;;6318345;22;20011;-82
2023/05/08 23:50:01;;;;;;;12.50;9.15;;;;;;;;;;6298561;22;20046;-81
2023/05/08 23:52:28;;;;;;;14.93;9.50;;;;;;;;;;6275792;22;19996;-80
2023/05/08 23:54:54;;;;;;;13.35;9.38;;;;;;;;;;6275453;22;20006;-81
2023/05/08 23:57:23;;;;;;;11.63;9.00;;;;;;;;;;6284932;22;19992;-83
2023/05/08 23:59:49;;;;;;;15.60;9.43;;;;;;;;;;6243298;22;20088;-81
